createdAt,value
2023-04-22T00:00:17.165Z,5.00
2023-04-22T00:02:45.799Z,4.90
2023-04-22T00:05:17.064Z,4.90
2023-04-22T00:07:47.862Z,4.90
2023-04-22T00:10:20.143Z,4.90
2023-04-22T00:12:48.666Z,5.00
2023-04-22T00:15:20.236Z,5.20
2023-04-22T00:17:48.757Z,5.10
2023-04-22T00:20:17.499Z,5.20
2023-04-22T00:22:45.799Z,5.20
2023-04-22T00:25:14.275Z,5.20
2023-04-22T00:27:45.143Z,5.20
2023-04-22T00:30:14.264Z,5.30
2023-04-22T00:32:42.568Z,5.30
2023-04-22T00:35:11.077Z,5.30
2023-04-22T00:37:39.462Z,5.50
2023-04-22T00:40:09.275Z,5.60
2023-04-22T00:42:38.775Z,5.70
2023-04-22T00:45:14.860Z,5.70
2023-04-22T00:47:43.375Z,5.80
2023-04-22T00:50:12.015Z,5.80
2023-04-22T00:52:40.729Z,5.80
2023-04-22T00:55:10.197Z,5.80
2023-04-22T00:57:39.473Z,5.80
2023-04-22T01:00:11.102Z,5.80
2023-04-22T01:02:40.753Z,5.80
2023-04-22T01:05:10.624Z,5.80
2023-04-22T01:07:38.981Z,5.80
2023-04-22T01:10:08.612Z,5.80
2023-04-22T01:12:37.047Z,5.80
2023-04-22T01:15:06.721Z,5.90
2023-04-22T01:17:36.871Z,5.90
2023-04-22T01:20:06.156Z,5.90
2023-04-22T01:22:40.615Z,5.90
2023-04-22T01:25:11.226Z,5.90
2023-04-22T01:27:40.765Z,5.90
2023-04-22T01:30:11.007Z,5.90
2023-04-22T01:32:41.223Z,5.90
2023-04-22T01:35:10.255Z,6.00
2023-04-22T01:37:39.075Z,6.00
2023-04-22T01:40:10.383Z,6.00
2023-04-22T01:42:40.662Z,6.00
2023-04-22T01:45:10.099Z,6.00
2023-04-22T01:47:38.437Z,5.90
2023-04-22T01:50:07.982Z,5.90
2023-04-22T01:52:38.290Z,5.90
2023-04-22T01:55:07.883Z,5.80
2023-04-22T01:57:36.234Z,5.80
2023-04-22T02:00:08.315Z,5.70
2023-04-22T02:02:37.754Z,5.80
2023-04-22T02:05:07.835Z,5.70
2023-04-22T02:07:37.360Z,5.80
2023-04-22T02:10:06.410Z,5.80
2023-04-22T02:12:34.739Z,6.00
2023-04-22T02:15:03.190Z,5.90
2023-04-22T02:17:34.344Z,5.90
2023-04-22T02:20:02.768Z,6.00
2023-04-22T02:22:31.149Z,5.90
2023-04-22T02:24:59.572Z,5.90
2023-04-22T02:27:27.915Z,6.10
2023-04-22T02:29:56.281Z,6.30
2023-04-22T02:32:24.773Z,6.40
2023-04-22T02:34:54.522Z,6.40
2023-04-22T02:37:23.876Z,6.50
2023-04-22T02:39:52.195Z,6.60
2023-04-22T02:42:20.503Z,6.80
2023-04-22T02:44:48.966Z,6.80
2023-04-22T02:47:17.926Z,6.80
2023-04-22T02:49:46.199Z,6.90
2023-04-22T02:52:15.941Z,7.10
2023-04-22T02:54:44.280Z,7.10
2023-04-22T02:57:12.605Z,7.10
2023-04-22T02:59:41.037Z,7.10
2023-04-22T03:02:10.772Z,7.20
2023-04-22T03:04:39.174Z,7.20
2023-04-22T03:07:07.679Z,7.20
2023-04-22T03:09:37.800Z,7.20
2023-04-22T03:12:06.571Z,7.20
2023-04-22T03:14:34.891Z,7.30
2023-04-22T03:17:03.376Z,7.30
2023-04-22T03:19:31.768Z,7.40
2023-04-22T03:22:00.395Z,7.40
2023-04-22T03:24:28.797Z,7.30
2023-04-22T03:26:58.646Z,7.30
2023-04-22T03:29:26.933Z,7.30
2023-04-22T03:31:55.430Z,7.30
2023-04-22T03:34:23.800Z,7.30
2023-04-22T03:36:52.213Z,7.30
2023-04-22T03:39:20.768Z,7.20
2023-04-22T03:41:49.073Z,7.20
2023-04-22T03:44:18.865Z,7.20
2023-04-22T03:46:47.276Z,7.20
2023-04-22T03:49:16.215Z,7.10
2023-04-22T03:51:44.619Z,7.10
2023-04-22T03:54:13.121Z,7.10
2023-04-22T03:56:41.599Z,7.10
2023-04-22T03:59:09.956Z,7.10
2023-04-22T04:01:39.715Z,7.10
2023-04-22T04:04:08.298Z,7.10
2023-04-22T04:06:36.877Z,7.10
2023-04-22T04:09:07.582Z,7.10
2023-04-22T04:11:35.985Z,7.00
2023-04-22T04:14:04.597Z,7.10
2023-04-22T04:16:33.156Z,7.10
2023-04-22T04:19:02.986Z,7.10
2023-04-22T04:21:33.517Z,7.10
2023-04-22T04:24:02.040Z,7.10
2023-04-22T04:26:30.732Z,7.10
2023-04-22T04:28:59.629Z,7.10
2023-04-22T04:31:28.178Z,7.10
2023-04-22T04:33:57.391Z,7.10
2023-04-22T04:36:29.471Z,7.00
2023-04-22T04:38:57.935Z,7.00
2023-04-22T04:41:28.198Z,7.00
2023-04-22T04:43:56.630Z,6.90
2023-04-22T04:46:25.105Z,6.90
2023-04-22T04:48:54.081Z,6.90
2023-04-22T04:51:26.722Z,6.90
2023-04-22T04:53:55.134Z,6.90
2023-04-22T04:56:23.810Z,6.90
2023-04-22T04:58:52.168Z,6.90
2023-04-22T05:01:20.910Z,6.90
2023-04-22T05:03:49.619Z,7.00
2023-04-22T05:06:18.028Z,6.90
2023-04-22T05:08:47.849Z,6.90
2023-04-22T05:11:16.232Z,6.90
2023-04-22T05:13:44.542Z,6.90
2023-04-22T05:16:13.275Z,7.00
2023-04-22T05:18:41.571Z,7.00
2023-04-22T05:21:09.906Z,7.00
2023-04-22T05:23:38.267Z,7.10
2023-04-22T05:26:07.959Z,7.10
2023-04-22T05:28:36.469Z,7.10
2023-04-22T05:31:04.873Z,7.10
2023-04-22T05:33:33.239Z,7.10
2023-04-22T05:36:01.558Z,7.10
2023-04-22T05:38:30.017Z,7.10
2023-04-22T05:40:58.374Z,7.10
2023-04-22T05:43:28.064Z,7.10
2023-04-22T05:45:56.593Z,7.10
2023-04-22T05:48:24.933Z,7.10
2023-04-22T05:50:55.720Z,7.10
2023-04-22T05:53:24.315Z,7.20
2023-04-22T05:55:52.702Z,7.20
2023-04-22T05:58:21.112Z,7.30
2023-04-22T06:00:50.943Z,7.40
2023-04-22T06:05:48.562Z,7.50
2023-04-22T06:08:17.001Z,7.80
2023-04-22T06:10:45.784Z,7.90
2023-04-22T06:13:14.150Z,8.00
2023-04-22T06:15:42.626Z,8.10
2023-04-22T06:18:12.399Z,8.20
2023-04-22T06:20:41.004Z,8.20
2023-04-22T06:23:09.273Z,8.40
2023-04-22T06:57:53.476Z,8.50
2023-04-22T07:00:21.844Z,8.90
2023-04-22T07:15:15.310Z,8.90
2023-04-22T07:22:41.770Z,9.30
2023-04-22T07:25:11.099Z,9.80
2023-04-22T07:27:40.930Z,9.70
2023-04-22T08:22:27.604Z,10.00
2023-04-22T08:24:55.920Z,12.00
2023-04-22T08:27:24.277Z,12.20
2023-04-22T08:32:22.502Z,12.50
2023-04-22T08:39:55.652Z,13.10
2023-04-22T08:42:24.463Z,13.30
2023-04-22T08:44:53.841Z,13.20
2023-04-22T08:47:22.815Z,13.20
2023-04-22T08:49:54.872Z,13.20
2023-04-22T08:52:23.354Z,13.10
2023-04-22T08:54:52.656Z,13.00
2023-04-22T08:57:21.561Z,12.90
2023-04-22T08:59:51.386Z,13.00
2023-04-22T09:02:22.303Z,12.90
2023-04-22T09:04:55.777Z,12.80
2023-04-22T09:07:26.000Z,12.80
2023-04-22T09:09:54.666Z,12.70
2023-04-22T09:12:23.318Z,12.50
2023-04-22T09:14:52.263Z,12.40
2023-04-22T09:17:31.760Z,12.20
2023-04-22T09:20:02.114Z,12.10
2023-04-22T09:22:38.102Z,12.00
2023-04-22T09:25:07.498Z,11.90
2023-04-22T09:27:37.185Z,11.80
2023-04-22T09:30:10.812Z,11.60
2023-04-22T09:32:40.810Z,11.30
2023-04-22T09:35:10.984Z,11.20
2023-04-22T09:37:48.953Z,11.10
2023-04-22T09:40:20.175Z,10.90
2023-04-22T09:45:33.758Z,10.80
2023-04-22T09:50:32.904Z,10.80
2023-04-22T10:51:55.654Z,10.80
2023-04-22T11:37:41.363Z,10.60
2023-04-22T11:40:27.310Z,11.50
2023-04-22T11:42:57.670Z,11.50
2023-04-22T11:45:28.617Z,11.50
2023-04-22T11:47:57.581Z,11.50
2023-04-22T11:50:27.644Z,11.60
2023-04-22T11:52:57.794Z,11.60
2023-04-22T11:55:30.376Z,11.70
2023-04-22T11:58:00.265Z,11.80
2023-04-22T12:00:33.979Z,11.90
2023-04-22T12:03:03.559Z,11.90
2023-04-22T12:05:40.566Z,12.00
2023-04-22T12:08:10.866Z,12.10
2023-04-22T12:10:46.769Z,12.10
2023-04-22T12:13:22.413Z,12.10
2023-04-22T12:15:55.818Z,12.10
2023-04-22T12:18:30.818Z,12.10
2023-04-22T12:21:02.349Z,12.00
2023-04-22T12:23:31.670Z,12.00
2023-04-22T12:25:59.955Z,12.10
2023-04-22T12:28:28.414Z,12.10
2023-04-22T12:30:58.103Z,12.20
2023-04-22T12:33:26.564Z,12.10
2023-04-22T12:35:54.919Z,12.30
2023-04-22T12:38:23.247Z,12.30
2023-04-22T12:40:52.386Z,12.30
2023-04-22T12:43:22.628Z,12.30
2023-04-22T12:45:51.848Z,12.30
2023-04-22T12:48:21.833Z,12.40
2023-04-22T12:50:50.123Z,12.20
2023-04-22T12:53:18.471Z,12.20
2023-04-22T12:55:46.883Z,12.20
2023-04-22T12:58:15.778Z,12.30
2023-04-22T13:00:44.148Z,12.30
2023-04-22T13:03:12.846Z,12.20
2023-04-22T13:05:42.669Z,12.00
2023-04-22T13:08:11.026Z,11.90
2023-04-22T13:10:39.366Z,11.70
2023-04-22T13:15:39.947Z,11.60
2023-04-22T13:18:08.359Z,11.70
2023-04-22T13:20:37.162Z,11.70
2023-04-22T13:23:08.218Z,11.80
2023-04-22T13:25:36.713Z,11.80
2023-04-22T13:28:05.063Z,11.70
2023-04-22T13:30:34.349Z,11.50
2023-04-22T13:33:02.773Z,11.40
2023-04-22T13:35:31.744Z,11.30
2023-04-22T13:38:00.174Z,11.10
2023-04-22T13:40:30.045Z,11.10
2023-04-22T13:42:58.445Z,11.10
2023-04-22T13:45:26.966Z,11.00
2023-04-22T13:47:55.584Z,11.00
2023-04-22T13:50:26.152Z,10.90
2023-04-22T13:52:54.949Z,10.90
2023-04-22T13:55:23.363Z,11.00
2023-04-22T13:57:54.249Z,10.90
2023-04-22T14:00:22.621Z,11.00
2023-04-22T14:02:51.358Z,11.10
2023-04-22T14:05:21.802Z,11.10
2023-04-22T14:07:50.195Z,11.00
2023-04-22T14:10:20.458Z,11.00
2023-04-22T14:12:50.233Z,11.00
2023-04-22T14:15:20.141Z,11.00
2023-04-22T14:17:51.190Z,11.10
2023-04-22T14:20:25.085Z,11.00
2023-04-22T14:22:53.616Z,11.10
2023-04-22T14:25:22.116Z,11.10
2023-04-22T14:27:50.537Z,11.10
2023-04-22T14:30:21.932Z,11.10
2023-04-22T14:32:52.996Z,11.20
2023-04-22T14:35:21.386Z,11.20
2023-04-22T14:37:49.757Z,11.50
2023-04-22T14:40:20.019Z,11.90
2023-04-22T14:42:48.360Z,12.20
2023-04-22T14:45:16.831Z,12.80
2023-04-22T14:47:46.659Z,13.20
2023-04-22T14:52:44.123Z,13.60
2023-04-22T14:55:22.363Z,14.10
2023-04-22T14:57:56.755Z,14.30
2023-04-22T15:00:25.708Z,15.00
2023-04-22T15:02:56.153Z,15.30
2023-04-22T15:05:24.766Z,15.30
2023-04-22T15:07:53.228Z,15.30
2023-04-22T15:10:21.935Z,15.00
2023-04-22T15:17:50.069Z,15.30
2023-04-22T15:35:14.341Z,16.00
2023-04-22T15:37:45.961Z,15.20
2023-04-22T15:40:14.348Z,15.40
2023-04-22T15:42:42.669Z,15.80
2023-04-22T15:45:11.769Z,15.60
2023-04-22T15:47:42.017Z,15.70
2023-04-22T15:50:11.302Z,15.80
2023-04-22T15:52:40.694Z,15.80
2023-04-22T15:55:11.091Z,15.60
2023-04-22T15:57:39.494Z,15.30
2023-04-22T16:00:13.513Z,15.10
2023-04-22T16:02:43.206Z,15.00
2023-04-22T16:05:12.616Z,15.20
2023-04-22T16:07:41.412Z,14.90
2023-04-22T16:22:37.193Z,14.70
2023-04-22T16:25:06.486Z,16.80
2023-04-22T16:27:36.216Z,17.10
2023-04-22T16:30:05.204Z,16.90
2023-04-22T16:32:33.665Z,16.90
2023-04-22T16:35:02.055Z,16.90
2023-04-22T16:37:32.677Z,16.60
2023-04-22T16:40:01.164Z,16.50
2023-04-22T16:42:32.120Z,16.60
2023-04-22T16:45:01.956Z,16.70
2023-04-22T16:47:30.520Z,16.80
2023-04-22T16:49:58.935Z,16.60
2023-04-22T16:52:27.272Z,16.40
2023-04-22T16:54:55.684Z,15.70
2023-04-22T16:57:24.267Z,14.90
2023-04-22T16:59:52.603Z,14.60
2023-04-22T17:04:51.253Z,14.40
2023-04-22T17:14:45.999Z,13.80
2023-04-22T17:19:44.827Z,13.50
2023-04-22T17:24:42.909Z,13.50
2023-04-22T17:27:14.754Z,13.30
2023-04-22T17:29:46.586Z,13.30
2023-04-22T17:32:15.013Z,13.20
2023-04-22T17:34:44.764Z,13.30
2023-04-22T17:37:13.094Z,13.30
2023-04-22T17:39:42.361Z,13.30
2023-04-22T17:42:10.726Z,13.40
2023-04-22T17:44:39.373Z,13.30
2023-04-22T17:47:08.031Z,13.30
2023-04-22T17:49:36.606Z,13.30
2023-04-22T17:52:06.637Z,13.40
2023-04-22T17:54:35.077Z,13.30
2023-04-22T17:57:03.751Z,13.20
2023-04-22T17:59:32.131Z,13.20
2023-04-22T18:02:01.682Z,13.00
2023-04-22T18:04:30.119Z,12.90
2023-04-22T18:06:58.521Z,12.80
2023-04-22T18:09:28.347Z,12.80
2023-04-22T18:11:58.638Z,13.00
2023-04-22T18:14:27.646Z,13.00
2023-04-22T18:16:56.087Z,13.00
2023-04-22T18:19:24.651Z,12.80
2023-04-22T18:36:53.938Z,12.70
2023-04-22T18:41:54.631Z,10.60
2023-04-22T18:44:23.009Z,10.30
2023-04-22T18:51:52.306Z,10.00
2023-04-22T18:54:20.764Z,9.50
2023-04-22T18:56:51.592Z,9.40
2023-04-22T18:59:21.934Z,9.40
2023-04-22T19:01:51.489Z,9.30
2023-04-22T19:06:48.952Z,9.20
2023-04-22T19:09:17.464Z,8.90
2023-04-22T19:11:45.942Z,8.70
2023-04-22T19:14:14.832Z,8.60
2023-04-22T19:16:48.627Z,8.50
2023-04-22T19:19:17.103Z,8.50
2023-04-22T19:21:45.970Z,8.50
2023-04-22T19:56:41.994Z,8.40
